createdAt,value
2023-12-16T00:00:21.359Z,20.70
2023-12-16T00:02:48.317Z,20.70
2023-12-16T00:05:15.299Z,20.69
2023-12-16T00:07:42.299Z,20.69
2023-12-16T00:10:11.212Z,20.70
2023-12-16T00:12:38.614Z,20.70
2023-12-16T00:15:06.714Z,20.70
2023-12-16T00:17:33.968Z,20.71
2023-12-16T00:20:01.154Z,20.71
2023-12-16T00:22:28.531Z,20.71
2023-12-16T00:24:55.596Z,20.71
2023-12-16T00:27:22.629Z,20.71
2023-12-16T00:29:49.713Z,20.71
2023-12-16T00:32:16.724Z,20.71
2023-12-16T00:34:43.699Z,20.70
2023-12-16T00:37:10.745Z,20.71
2023-12-16T00:39:37.833Z,20.71
2023-12-16T00:42:05.223Z,20.71
2023-12-16T00:44:33.039Z,20.70
2023-12-16T00:47:00.288Z,20.71
2023-12-16T00:49:27.398Z,20.71
2023-12-16T00:51:54.494Z,20.70
2023-12-16T00:54:22.083Z,20.70
2023-12-16T00:56:49.385Z,20.70
2023-12-16T00:59:16.853Z,20.69
2023-12-16T01:01:44.433Z,20.68
2023-12-16T01:04:11.730Z,20.68
2023-12-16T01:06:39.118Z,20.66
2023-12-16T01:09:06.006Z,20.65
2023-12-16T01:11:33.018Z,20.64
2023-12-16T01:14:00.185Z,20.62
2023-12-16T01:16:27.343Z,20.59
2023-12-16T01:18:54.875Z,20.57
2023-12-16T01:21:22.226Z,20.55
2023-12-16T01:23:49.226Z,20.53
2023-12-16T01:26:17.236Z,20.51
2023-12-16T01:28:44.795Z,20.49
2023-12-16T01:31:12.012Z,20.46
2023-12-16T01:33:39.089Z,20.44
2023-12-16T01:36:06.461Z,20.43
2023-12-16T01:38:33.346Z,20.41
2023-12-16T01:41:00.479Z,20.40
2023-12-16T01:43:27.587Z,20.38
2023-12-16T01:46:03.233Z,20.36
2023-12-16T01:48:32.160Z,20.35
2023-12-16T01:50:59.322Z,20.35
2023-12-16T01:53:28.587Z,20.33
2023-12-16T01:55:56.356Z,20.34
2023-12-16T01:58:24.382Z,20.33
2023-12-16T02:00:54.121Z,20.33
2023-12-16T02:03:23.184Z,20.32
2023-12-16T02:05:50.266Z,20.32
2023-12-16T02:08:17.428Z,20.31
2023-12-16T02:10:45.001Z,20.31
2023-12-16T02:13:12.190Z,20.31
2023-12-16T02:15:40.212Z,20.31
2023-12-16T02:18:07.483Z,20.31
2023-12-16T02:20:34.507Z,20.32
2023-12-16T02:23:02.402Z,20.33
2023-12-16T02:25:33.314Z,20.34
2023-12-16T02:28:00.450Z,20.34
2023-12-16T02:30:27.538Z,20.35
2023-12-16T02:32:57.172Z,20.36
2023-12-16T02:35:24.333Z,20.35
2023-12-16T02:37:51.457Z,20.34
2023-12-16T02:40:18.512Z,20.33
2023-12-16T02:42:45.743Z,20.31
2023-12-16T02:45:12.874Z,20.28
2023-12-16T02:47:40.341Z,20.27
2023-12-16T02:50:08.904Z,20.25
2023-12-16T02:52:36.483Z,20.24
2023-12-16T02:55:03.952Z,20.24
2023-12-16T02:57:30.933Z,20.24
2023-12-16T02:59:57.920Z,20.25
2023-12-16T03:02:24.908Z,20.26
2023-12-16T03:04:53.520Z,20.25
2023-12-16T03:07:20.633Z,20.25
2023-12-16T03:09:48.327Z,20.25
2023-12-16T03:12:15.719Z,20.23
2023-12-16T03:14:43.330Z,20.22
2023-12-16T03:17:10.594Z,20.21
2023-12-16T03:19:38.062Z,20.20
2023-12-16T03:22:05.414Z,20.18
2023-12-16T03:24:32.704Z,20.18
2023-12-16T03:26:59.967Z,20.17
2023-12-16T03:29:27.007Z,20.16
2023-12-16T03:31:55.173Z,20.15
2023-12-16T03:34:23.143Z,20.14
2023-12-16T03:36:50.273Z,20.13
2023-12-16T03:39:17.642Z,20.12
2023-12-16T03:41:44.597Z,20.12
2023-12-16T03:44:11.639Z,20.10
2023-12-16T03:46:38.729Z,20.09
2023-12-16T03:49:05.953Z,20.08
2023-12-16T03:51:32.938Z,20.07
2023-12-16T03:54:00.273Z,20.07
2023-12-16T03:56:27.372Z,20.07
2023-12-16T03:58:54.440Z,20.06
2023-12-16T04:01:21.886Z,20.05
2023-12-16T04:03:49.116Z,20.04
2023-12-16T04:06:16.603Z,20.03
2023-12-16T04:08:43.644Z,20.03
2023-12-16T04:11:10.699Z,20.02
2023-12-16T04:13:37.682Z,20.02
2023-12-16T04:16:05.829Z,20.02
2023-12-16T04:18:33.966Z,20.01
2023-12-16T04:21:03.104Z,20.01
2023-12-16T04:23:30.145Z,20.02
2023-12-16T04:25:57.522Z,20.02
2023-12-16T04:28:24.483Z,20.03
2023-12-16T04:30:51.556Z,20.03
2023-12-16T04:33:18.942Z,20.04
2023-12-16T04:35:46.197Z,20.03
2023-12-16T04:38:13.257Z,20.03
2023-12-16T04:40:40.902Z,20.03
2023-12-16T04:43:07.995Z,20.02
2023-12-16T04:45:36.957Z,20.02
2023-12-16T04:48:04.555Z,20.01
2023-12-16T04:50:31.759Z,20.01
2023-12-16T04:52:58.950Z,20.01
2023-12-16T04:55:26.515Z,20.02
2023-12-16T04:57:53.666Z,20.02
2023-12-16T05:00:21.061Z,20.03
2023-12-16T05:02:48.009Z,20.03
2023-12-16T05:05:15.495Z,20.03
2023-12-16T05:07:42.901Z,20.03
2023-12-16T05:10:12.297Z,20.02
2023-12-16T05:12:41.541Z,20.02
2023-12-16T05:15:09.052Z,20.02
2023-12-16T05:17:36.825Z,20.02
2023-12-16T05:20:05.090Z,20.02
2023-12-16T05:22:35.323Z,20.02
2023-12-16T05:25:03.967Z,20.02
2023-12-16T05:27:32.213Z,20.02
2023-12-16T05:30:00.444Z,20.03
2023-12-16T05:32:30.566Z,20.03
2023-12-16T05:34:57.976Z,20.03
2023-12-16T05:37:25.092Z,20.05
2023-12-16T05:39:54.388Z,20.05
2023-12-16T05:42:22.092Z,20.05
2023-12-16T05:44:49.122Z,20.05
2023-12-16T05:47:16.079Z,20.05
2023-12-16T05:49:43.280Z,20.03
2023-12-16T05:52:11.445Z,20.02
2023-12-16T05:54:38.775Z,20.01
2023-12-16T05:57:06.117Z,20.00
2023-12-16T05:59:33.187Z,19.99
2023-12-16T06:02:00.465Z,19.98
2023-12-16T06:04:27.509Z,19.99
2023-12-16T06:06:55.354Z,20.00
2023-12-16T06:09:22.320Z,20.01
2023-12-16T06:11:49.231Z,20.03
2023-12-16T06:14:16.157Z,20.04
2023-12-16T06:16:43.194Z,20.06
2023-12-16T06:19:10.834Z,20.07
2023-12-16T06:21:37.892Z,20.09
2023-12-16T06:24:06.232Z,20.10
2023-12-16T06:26:33.182Z,20.11
2023-12-16T06:29:00.373Z,20.12
2023-12-16T06:31:27.295Z,20.14
2023-12-16T06:33:54.747Z,20.15
2023-12-16T06:36:21.711Z,20.15
2023-12-16T06:38:48.643Z,20.16
2023-12-16T06:41:15.588Z,20.17
2023-12-16T06:43:42.585Z,20.17
2023-12-16T06:46:09.773Z,20.18
2023-12-16T06:48:37.345Z,20.19
2023-12-16T06:51:04.500Z,20.19
2023-12-16T06:53:32.192Z,20.20
2023-12-16T06:55:59.212Z,20.21
2023-12-16T06:58:26.245Z,20.21
2023-12-16T07:00:53.450Z,20.21
2023-12-16T07:03:20.687Z,20.20
2023-12-16T07:05:47.692Z,20.21
2023-12-16T07:08:14.708Z,20.21
2023-12-16T07:10:42.191Z,20.21
2023-12-16T07:13:09.585Z,20.21
2023-12-16T07:15:36.709Z,20.20
2023-12-16T07:18:04.545Z,20.18
2023-12-16T07:20:31.681Z,20.18
2023-12-16T07:22:58.612Z,20.19
2023-12-16T07:25:25.635Z,20.19
2023-12-16T07:27:52.639Z,20.21
2023-12-16T07:30:19.781Z,20.22
2023-12-16T07:32:46.823Z,20.23
2023-12-16T07:35:16.658Z,20.24
2023-12-16T07:37:44.428Z,20.25
2023-12-16T07:40:11.875Z,20.26
2023-12-16T07:42:40.913Z,20.27
2023-12-16T07:45:09.159Z,20.28
2023-12-16T07:47:36.523Z,20.28
2023-12-16T07:50:04.807Z,20.28
2023-12-16T07:52:32.295Z,20.30
2023-12-16T07:54:59.500Z,20.31
2023-12-16T07:57:26.665Z,20.32
2023-12-16T07:59:54.819Z,20.33
2023-12-16T08:02:22.125Z,20.33
2023-12-16T08:04:50.726Z,20.34
2023-12-16T08:07:17.786Z,20.35
2023-12-16T08:09:44.758Z,20.34
2023-12-16T08:12:12.255Z,20.36
2023-12-16T08:14:39.171Z,20.36
2023-12-16T08:17:06.401Z,20.36
2023-12-16T08:19:33.930Z,20.37
2023-12-16T08:22:03.728Z,20.37
2023-12-16T08:24:31.108Z,20.38
2023-12-16T08:26:58.243Z,20.39
2023-12-16T08:29:25.329Z,20.40
2023-12-16T08:31:52.803Z,20.40
2023-12-16T08:34:21.302Z,20.41
2023-12-16T08:36:50.302Z,20.41
2023-12-16T08:39:17.424Z,20.41
2023-12-16T08:41:44.869Z,20.41
2023-12-16T08:44:11.945Z,20.41
2023-12-16T08:46:42.779Z,20.42
2023-12-16T08:49:09.933Z,20.43
2023-12-16T08:51:36.909Z,20.42
2023-12-16T08:54:03.955Z,20.42
2023-12-16T08:56:30.985Z,20.43
2023-12-16T08:58:58.185Z,20.43
2023-12-16T09:01:25.179Z,20.42
2023-12-16T09:03:52.325Z,20.43
2023-12-16T09:06:19.462Z,20.43
2023-12-16T09:08:46.636Z,20.43
2023-12-16T09:11:13.709Z,20.44
2023-12-16T09:13:40.911Z,20.43
2023-12-16T09:16:08.234Z,20.41
2023-12-16T09:18:38.171Z,20.39
2023-12-16T09:21:06.306Z,20.38
2023-12-16T09:23:34.844Z,20.37
2023-12-16T09:26:01.937Z,20.35
2023-12-16T09:28:29.228Z,20.34
2023-12-16T09:30:56.590Z,20.32
2023-12-16T09:33:23.778Z,20.30
2023-12-16T09:35:50.972Z,20.28
2023-12-16T09:38:18.083Z,20.26
2023-12-16T09:40:47.103Z,20.25
2023-12-16T09:43:18.098Z,20.23
2023-12-16T09:45:48.047Z,20.22
2023-12-16T09:48:21.059Z,20.23
2023-12-16T09:50:48.913Z,20.23
2023-12-16T09:53:16.762Z,20.24
2023-12-16T09:55:47.119Z,20.25
2023-12-16T09:58:16.718Z,20.26
2023-12-16T10:00:48.409Z,20.27
2023-12-16T10:03:18.831Z,20.28
2023-12-16T10:05:48.175Z,20.30
2023-12-16T10:08:15.116Z,20.31
2023-12-16T10:10:44.707Z,20.31
2023-12-16T10:13:14.850Z,20.32
2023-12-16T10:15:42.514Z,20.33
2023-12-16T10:18:09.645Z,20.34
2023-12-16T10:20:36.775Z,20.35
2023-12-16T10:23:04.376Z,20.36
2023-12-16T10:25:35.918Z,20.36
2023-12-16T10:28:04.262Z,20.36
2023-12-16T10:30:32.949Z,20.36
2023-12-16T10:33:05.373Z,20.37
2023-12-16T10:35:38.794Z,20.37
2023-12-16T10:38:10.501Z,20.38
2023-12-16T10:40:43.849Z,20.38
2023-12-16T10:43:13.529Z,20.39
2023-12-16T10:45:44.817Z,20.39
2023-12-16T10:48:17.084Z,20.40
2023-12-16T10:50:49.416Z,20.41
2023-12-16T10:53:28.109Z,20.41
2023-12-16T10:56:04.672Z,20.41
2023-12-16T10:58:45.212Z,20.41
2023-12-16T11:01:20.339Z,20.42
2023-12-16T11:03:57.452Z,20.42
2023-12-16T11:06:48.675Z,20.43
2023-12-16T11:09:18.317Z,20.43
2023-12-16T11:11:48.155Z,20.44
2023-12-16T11:14:19.361Z,20.44
2023-12-16T11:16:59.816Z,20.45
2023-12-16T11:19:32.638Z,20.46
2023-12-16T11:22:02.493Z,20.46
2023-12-16T11:24:40.458Z,20.47
2023-12-16T11:27:09.478Z,20.47
2023-12-16T11:29:38.738Z,20.48
2023-12-16T11:32:08.220Z,20.48
2023-12-16T11:34:43.809Z,20.48
2023-12-16T11:37:13.934Z,20.48
2023-12-16T11:39:50.316Z,20.48
2023-12-16T11:42:57.349Z,20.48
2023-12-16T11:45:46.860Z,20.48
2023-12-16T11:48:17.780Z,20.48
2023-12-16T11:50:47.201Z,20.48
2023-12-16T11:53:18.856Z,20.47
2023-12-16T11:55:46.843Z,20.47
2023-12-16T11:58:14.049Z,20.47
2023-12-16T12:00:44.667Z,20.48
2023-12-16T12:03:13.038Z,20.48
2023-12-16T12:05:41.016Z,20.48
2023-12-16T12:08:08.116Z,20.48
2023-12-16T12:10:36.132Z,20.49
2023-12-16T12:13:04.430Z,20.49
2023-12-16T12:15:35.176Z,20.49
2023-12-16T12:18:02.393Z,20.49
2023-12-16T12:20:30.517Z,20.49
2023-12-16T12:22:58.093Z,20.50
2023-12-16T12:25:25.532Z,20.50
2023-12-16T12:27:52.852Z,20.49
2023-12-16T12:30:22.768Z,20.49
2023-12-16T12:32:50.464Z,20.49
2023-12-16T12:35:17.889Z,20.48
2023-12-16T12:37:46.501Z,20.49
2023-12-16T12:40:14.982Z,20.49
2023-12-16T12:42:45.481Z,20.48
2023-12-16T12:45:24.865Z,20.49
2023-12-16T12:47:53.621Z,20.49
2023-12-16T12:50:25.596Z,20.49
2023-12-16T12:53:18.639Z,20.49
2023-12-16T12:55:39.952Z,20.48
2023-12-16T12:58:11.513Z,20.49
2023-12-16T13:00:46.736Z,20.48
2023-12-16T13:03:14.229Z,20.49
2023-12-16T13:05:43.228Z,20.48
2023-12-16T13:08:11.837Z,20.48
2023-12-16T13:10:39.408Z,20.47
2023-12-16T13:13:06.554Z,20.47
2023-12-16T13:15:52.996Z,20.47
2023-12-16T13:18:20.482Z,20.47
2023-12-16T13:20:47.944Z,20.46
2023-12-16T13:23:15.796Z,20.46
2023-12-16T13:25:42.845Z,20.46
2023-12-16T13:28:10.314Z,20.45
2023-12-16T13:30:37.534Z,20.46
2023-12-16T13:33:07.711Z,20.45
2023-12-16T13:35:34.786Z,20.45
2023-12-16T13:38:01.981Z,20.44
2023-12-16T13:40:28.894Z,20.44
2023-12-16T13:42:55.946Z,20.43
2023-12-16T13:45:23.284Z,20.43
2023-12-16T13:47:50.601Z,20.43
2023-12-16T13:50:17.997Z,20.42
2023-12-16T13:52:45.385Z,20.42
2023-12-16T13:55:12.523Z,20.42
2023-12-16T13:57:39.901Z,20.41
2023-12-16T14:00:08.686Z,20.41
2023-12-16T14:02:35.911Z,20.41
2023-12-16T14:05:03.972Z,20.40
2023-12-16T14:07:30.935Z,20.41
2023-12-16T14:09:58.050Z,20.40
2023-12-16T14:12:25.099Z,20.39
2023-12-16T14:14:53.144Z,20.39
2023-12-16T14:17:20.165Z,20.39
2023-12-16T14:19:47.261Z,20.39
2023-12-16T14:22:14.570Z,20.39
2023-12-16T14:24:41.486Z,20.39
2023-12-16T14:27:09.680Z,20.39
2023-12-16T14:29:37.143Z,20.39
2023-12-16T14:32:04.477Z,20.38
2023-12-16T14:34:31.577Z,20.38
2023-12-16T14:36:58.780Z,20.37
2023-12-16T14:39:25.752Z,20.37
2023-12-16T14:41:52.770Z,20.37
2023-12-16T14:44:19.846Z,20.37
2023-12-16T14:46:46.930Z,20.36
2023-12-16T14:49:14.047Z,20.35
2023-12-16T14:51:41.152Z,20.32
2023-12-16T14:54:08.457Z,20.29
2023-12-16T14:56:35.535Z,20.26
2023-12-16T14:59:02.494Z,20.25
2023-12-16T15:01:29.718Z,20.24
2023-12-16T15:03:56.965Z,20.25
2023-12-16T15:06:30.422Z,20.24
2023-12-16T15:09:00.086Z,20.23
2023-12-16T15:11:27.747Z,20.22
2023-12-16T15:13:54.616Z,20.21
2023-12-16T15:16:21.961Z,20.21
2023-12-16T15:18:50.217Z,20.21
2023-12-16T15:21:18.240Z,20.21
2023-12-16T15:23:49.384Z,20.20
2023-12-16T15:26:17.000Z,20.18
2023-12-16T15:28:46.484Z,20.17
2023-12-16T15:31:14.353Z,20.16
2023-12-16T15:33:42.025Z,20.15
2023-12-16T15:36:12.885Z,20.14
2023-12-16T15:38:40.029Z,20.13
2023-12-16T15:41:18.146Z,20.12
2023-12-16T15:43:45.998Z,20.11
2023-12-16T15:46:14.248Z,20.10
2023-12-16T15:48:42.307Z,20.11
2023-12-16T15:51:09.830Z,20.11
2023-12-16T15:53:37.101Z,20.10
2023-12-16T15:56:05.271Z,20.10
2023-12-16T15:58:32.303Z,20.10
2023-12-16T16:00:59.562Z,20.10
2023-12-16T16:03:26.849Z,20.09
2023-12-16T16:05:54.106Z,20.07
2023-12-16T16:08:21.221Z,20.06
2023-12-16T16:10:48.333Z,20.05
2023-12-16T16:13:15.549Z,20.04
2023-12-16T16:15:42.703Z,20.03
2023-12-16T16:18:10.897Z,20.02
2023-12-16T16:20:38.214Z,20.02
2023-12-16T16:23:08.338Z,20.01
2023-12-16T16:25:35.431Z,20.00
2023-12-16T16:28:02.379Z,19.99
2023-12-16T16:30:29.477Z,20.00
2023-12-16T16:32:57.051Z,19.98
2023-12-16T16:35:24.705Z,19.98
2023-12-16T16:37:52.625Z,19.98
2023-12-16T16:40:19.909Z,19.97
2023-12-16T16:42:47.603Z,19.97
2023-12-16T16:45:16.438Z,19.99
2023-12-16T16:47:44.159Z,19.99
2023-12-16T16:50:11.823Z,20.00
2023-12-16T16:52:39.989Z,20.01
2023-12-16T16:55:07.815Z,20.02
2023-12-16T16:57:35.462Z,20.05
2023-12-16T17:00:10.783Z,20.05
2023-12-16T17:02:39.328Z,20.05
2023-12-16T17:05:08.817Z,20.06
2023-12-16T17:07:36.572Z,20.05
2023-12-16T17:10:06.451Z,20.05
2023-12-16T17:12:34.982Z,20.03
2023-12-16T17:15:03.258Z,20.02
2023-12-16T17:17:33.954Z,20.02
2023-12-16T17:20:01.407Z,20.01
2023-12-16T17:22:28.942Z,20.00
2023-12-16T17:24:59.139Z,20.00
2023-12-16T17:27:26.232Z,20.00
2023-12-16T17:29:53.296Z,20.00
2023-12-16T17:32:20.849Z,20.01
2023-12-16T17:34:48.908Z,20.00
2023-12-16T17:37:16.584Z,19.99
2023-12-16T17:39:43.526Z,19.99
2023-12-16T17:42:11.438Z,19.98
2023-12-16T17:44:38.431Z,19.97
2023-12-16T17:47:05.510Z,19.98
2023-12-16T17:49:32.995Z,19.98
2023-12-16T17:52:00.105Z,20.00
2023-12-16T17:54:27.546Z,20.00
2023-12-16T17:56:54.512Z,20.00
2023-12-16T17:59:21.645Z,20.00
2023-12-16T18:01:49.772Z,20.00
2023-12-16T18:04:17.217Z,19.99
2023-12-16T18:06:45.254Z,19.99
2023-12-16T18:09:12.440Z,20.00
2023-12-16T18:11:41.983Z,20.00
2023-12-16T18:14:09.171Z,19.99
2023-12-16T18:16:37.350Z,19.99
2023-12-16T18:19:05.218Z,19.98
2023-12-16T18:21:33.674Z,19.98
2023-12-16T18:24:01.754Z,19.98
2023-12-16T18:26:29.257Z,19.97
2023-12-16T18:28:57.214Z,19.97
2023-12-16T18:31:24.330Z,19.96
2023-12-16T18:33:51.536Z,19.96
2023-12-16T18:36:18.836Z,19.96
2023-12-16T18:38:46.265Z,19.96
2023-12-16T18:41:13.491Z,19.97
2023-12-16T18:43:40.660Z,19.99
2023-12-16T18:46:07.825Z,20.01
2023-12-16T18:48:35.098Z,20.03
2023-12-16T18:51:02.264Z,20.03
2023-12-16T18:53:29.221Z,20.03
2023-12-16T18:55:57.228Z,20.03
2023-12-16T18:58:25.502Z,20.02
2023-12-16T19:00:52.608Z,20.02
2023-12-16T19:03:20.449Z,20.01
2023-12-16T19:05:47.710Z,20.00
2023-12-16T19:08:14.755Z,19.99
2023-12-16T19:10:42.168Z,19.99
2023-12-16T19:13:09.348Z,19.99
2023-12-16T19:15:36.512Z,19.98
2023-12-16T19:18:04.415Z,19.97
2023-12-16T19:20:31.531Z,19.97
2023-12-16T19:22:58.988Z,19.98
2023-12-16T19:25:26.033Z,19.97
2023-12-16T19:27:53.071Z,19.97
2023-12-16T19:30:20.279Z,19.97
2023-12-16T19:32:47.523Z,19.97
2023-12-16T19:35:14.840Z,19.97
2023-12-16T19:37:42.283Z,19.96
2023-12-16T19:40:10.358Z,19.95
2023-12-16T19:42:37.367Z,19.95
2023-12-16T19:45:08.006Z,19.95
2023-12-16T19:47:35.464Z,19.97
2023-12-16T19:50:02.625Z,19.98
2023-12-16T19:52:29.620Z,19.99
2023-12-16T19:54:56.751Z,20.01
2023-12-16T19:57:23.907Z,20.02
2023-12-16T19:59:52.905Z,20.02
2023-12-16T20:02:19.994Z,20.03
2023-12-16T20:04:48.399Z,20.03
2023-12-16T20:07:15.477Z,20.04
2023-12-16T20:09:43.325Z,20.05
2023-12-16T20:12:10.717Z,20.06
2023-12-16T20:14:38.187Z,20.07
2023-12-16T20:17:05.233Z,20.08
2023-12-16T20:19:32.496Z,20.10
2023-12-16T20:22:01.790Z,20.10
2023-12-16T20:24:29.038Z,20.11
2023-12-16T20:26:57.140Z,20.12
2023-12-16T20:29:24.817Z,20.13
2023-12-16T20:31:53.120Z,20.13
2023-12-16T20:34:20.372Z,20.14
2023-12-16T20:36:49.246Z,20.15
2023-12-16T20:39:35.216Z,20.14
2023-12-16T20:42:02.422Z,20.14
2023-12-16T20:44:29.612Z,20.14
2023-12-16T20:46:56.660Z,20.14
2023-12-16T20:49:23.903Z,20.14
2023-12-16T20:51:55.828Z,20.13
2023-12-16T20:54:23.764Z,20.12
2023-12-16T20:56:50.932Z,20.11
2023-12-16T20:59:18.126Z,20.10
2023-12-16T21:01:45.134Z,20.10
2023-12-16T21:04:12.729Z,20.10
2023-12-16T21:06:40.194Z,20.10
2023-12-16T21:09:07.301Z,20.11
2023-12-16T21:11:34.409Z,20.11
2023-12-16T21:14:01.508Z,20.11
2023-12-16T21:16:28.485Z,20.11
2023-12-16T21:18:55.701Z,20.12
2023-12-16T21:21:24.152Z,20.12
2023-12-16T21:23:51.240Z,20.13
2023-12-16T21:26:18.273Z,20.13
2023-12-16T21:28:45.629Z,20.13
2023-12-16T21:31:12.904Z,20.13
2023-12-16T21:33:40.219Z,20.14
2023-12-16T21:36:07.455Z,20.13
2023-12-16T21:38:34.869Z,20.14
2023-12-16T21:41:01.889Z,20.14
2023-12-16T21:43:29.405Z,20.14
2023-12-16T21:45:56.512Z,20.15
2023-12-16T21:48:26.017Z,20.15
2023-12-16T21:50:52.986Z,20.15
2023-12-16T21:53:20.418Z,20.15
2023-12-16T21:55:47.455Z,20.14
2023-12-16T21:58:14.381Z,20.13
2023-12-16T22:00:41.415Z,20.13
2023-12-16T22:03:08.626Z,20.13
2023-12-16T22:05:36.419Z,20.14
2023-12-16T22:08:06.010Z,20.14
2023-12-16T22:10:34.472Z,20.15
2023-12-16T22:13:01.364Z,20.15
2023-12-16T22:15:28.900Z,20.16
2023-12-16T22:17:56.259Z,20.16
2023-12-16T22:20:23.305Z,20.17
2023-12-16T22:22:52.738Z,20.17
2023-12-16T22:25:19.693Z,20.17
2023-12-16T22:27:47.229Z,20.17
2023-12-16T22:30:14.724Z,20.16
2023-12-16T22:32:42.122Z,20.17
2023-12-16T22:35:09.575Z,20.17
2023-12-16T22:37:37.207Z,20.16
2023-12-16T22:40:04.692Z,20.15
2023-12-16T22:42:31.844Z,20.14
2023-12-16T22:44:58.973Z,20.15
2023-12-16T22:47:27.275Z,20.14
2023-12-16T22:49:57.642Z,20.15
2023-12-16T22:52:24.699Z,20.15
2023-12-16T22:54:51.730Z,20.14
2023-12-16T22:57:18.949Z,20.13
2023-12-16T22:59:46.043Z,20.12
2023-12-16T23:02:13.052Z,20.12
2023-12-16T23:04:40.679Z,20.12
2023-12-16T23:07:07.787Z,20.13
2023-12-16T23:09:37.880Z,20.13
2023-12-16T23:12:05.806Z,20.14
2023-12-16T23:14:32.842Z,20.14
2023-12-16T23:16:59.861Z,20.14
2023-12-16T23:19:26.900Z,20.12
2023-12-16T23:21:54.808Z,20.13
2023-12-16T23:24:21.852Z,20.13
2023-12-16T23:26:49.031Z,20.13
2023-12-16T23:29:16.169Z,20.13
2023-12-16T23:31:43.131Z,20.14
2023-12-16T23:34:10.266Z,20.13
2023-12-16T23:36:37.408Z,20.14
2023-12-16T23:39:04.621Z,20.14
2023-12-16T23:41:31.885Z,20.13
2023-12-16T23:43:58.830Z,20.14
2023-12-16T23:46:25.884Z,20.14
2023-12-16T23:48:52.945Z,20.14
2023-12-16T23:51:20.250Z,20.14
2023-12-16T23:53:48.474Z,20.14
2023-12-16T23:56:23.262Z,20.14
2023-12-16T23:58:50.414Z,20.15
